sensor_id;sensor_type;location;lat;lon;timestamp;P1;durP1;ratioP1;P2;durP2;ratioP2
10586;SDS011;5341;47.606;7.576;2023-02-19T00:01:05;2.50;;;2.17;;
10586;SDS011;5341;47.606;7.576;2023-02-19T00:03:34;2.67;;;2.13;;
10586;SDS011;5341;47.606;7.576;2023-02-19T00:06:02;2.60;;;2.40;;
10586;SDS011;5341;47.606;7.576;2023-02-19T00:08:30;2.50;;;2.30;;
10586;SDS011;5341;47.606;7.576;2023-02-19T00:11:03;3.90;;;2.30;;
10586;SDS011;5341;47.606;7.576;2023-02-19T00:13:34;2.47;;;2.10;;
10586;SDS011;5341;47.606;7.576;2023-02-19T00:16:04;3.25;;;2.00;;
10586;SDS011;5341;47.606;7.576;2023-02-19T00:18:32;3.20;;;2.20;;
10586;SDS011;5341;47.606;7.576;2023-02-19T00:20:59;2.83;;;2.08;;
10586;SDS011;5341;47.606;7.576;2023-02-19T00:23:27;2.08;;;1.88;;
10586;SDS011;5341;47.606;7.576;2023-02-19T00:25:54;1.83;;;1.73;;
10586;SDS011;5341;47.606;7.576;2023-02-19T00:28:23;2.88;;;1.98;;
10586;SDS011;5341;47.606;7.576;2023-02-19T00:30:51;3.08;;;2.00;;
10586;SDS011;5341;47.606;7.576;2023-02-19T00:33:18;2.22;;;2.00;;
10586;SDS011;5341;47.606;7.576;2023-02-19T00:35:46;2.20;;;2.00;;
10586;SDS011;5341;47.606;7.576;2023-02-19T00:38:14;2.25;;;1.88;;
10586;SDS011;5341;47.606;7.576;2023-02-19T00:40:41;2.10;;;1.90;;
10586;SDS011;5341;47.606;7.576;2023-02-19T00:43:08;2.22;;;2.00;;
10586;SDS011;5341;47.606;7.576;2023-02-19T00:45:38;4.20;;;2.20;;
10586;SDS011;5341;47.606;7.576;2023-02-19T00:48:06;2.20;;;2.00;;
10586;SDS011;5341;47.606;7.576;2023-02-19T00:50:33;2.33;;;2.10;;
10586;SDS011;5341;47.606;7.576;2023-02-19T00:53:01;3.38;;;2.13;;
10586;SDS011;5341;47.606;7.576;2023-02-19T00:55:28;3.00;;;1.77;;
10586;SDS011;5341;47.606;7.576;2023-02-19T00:57:55;2.00;;;1.80;;
10586;SDS011;5341;47.606;7.576;2023-02-19T01:00:23;2.00;;;1.80;;
10586;SDS011;5341;47.606;7.576;2023-02-19T01:02:52;3.35;;;1.80;;
10586;SDS011;5341;47.606;7.576;2023-02-19T01:05:24;3.60;;;2.10;;
10586;SDS011;5341;47.606;7.576;2023-02-19T01:07:52;2.97;;;2.00;;
10586;SDS011;5341;47.606;7.576;2023-02-19T01:10:19;3.70;;;1.90;;
10586;SDS011;5341;47.606;7.576;2023-02-19T01:12:46;2.65;;;1.77;;
10586;SDS011;5341;47.606;7.576;2023-02-19T01:15:14;2.38;;;2.08;;
10586;SDS011;5341;47.606;7.576;2023-02-19T01:17:41;5.07;;;1.98;;
10586;SDS011;5341;47.606;7.576;2023-02-19T01:20:10;2.00;;;1.80;;
10586;SDS011;5341;47.606;7.576;2023-02-19T01:22:39;2.10;;;1.60;;
10586;SDS011;5341;47.606;7.576;2023-02-19T01:25:07;2.60;;;1.60;;
10586;SDS011;5341;47.606;7.576;2023-02-19T01:27:35;1.80;;;1.60;;
10586;SDS011;5341;47.606;7.576;2023-02-19T01:30:06;1.60;;;1.50;;
10586;SDS011;5341;47.606;7.576;2023-02-19T01:32:34;2.28;;;1.60;;
10586;SDS011;5341;47.606;7.576;2023-02-19T01:35:01;2.75;;;1.52;;
10586;SDS011;5341;47.606;7.576;2023-02-19T01:37:31;1.77;;;1.67;;
10586;SDS011;5341;47.606;7.576;2023-02-19T01:39:59;1.67;;;1.58;;
10586;SDS011;5341;47.606;7.576;2023-02-19T01:42:29;1.92;;;1.60;;
10586;SDS011;5341;47.606;7.576;2023-02-19T01:45:17;2.95;;;1.77;;
10586;SDS011;5341;47.606;7.576;2023-02-19T01:47:56;1.60;;;1.50;;
10586;SDS011;5341;47.606;7.576;2023-02-19T01:50:40;1.77;;;1.67;;
10586;SDS011;5341;47.606;7.576;2023-02-19T01:53:12;1.90;;;1.75;;
10586;SDS011;5341;47.606;7.576;2023-02-19T01:55:47;2.25;;;1.65;;
10586;SDS011;5341;47.606;7.576;2023-02-19T01:58:25;2.53;;;1.80;;
10586;SDS011;5341;47.606;7.576;2023-02-19T02:00:55;1.67;;;1.58;;
10586;SDS011;5341;47.606;7.576;2023-02-19T02:03:23;1.63;;;1.52;;
10586;SDS011;5341;47.606;7.576;2023-02-19T02:05:52;1.92;;;1.73;;
10586;SDS011;5341;47.606;7.576;2023-02-19T02:08:27;1.75;;;1.58;;
10586;SDS011;5341;47.606;7.576;2023-02-19T02:11:12;1.60;;;1.50;;
10586;SDS011;5341;47.606;7.576;2023-02-19T02:13:40;1.63;;;1.50;;
10586;SDS011;5341;47.606;7.576;2023-02-19T02:16:12;2.35;;;1.80;;
10586;SDS011;5341;47.606;7.576;2023-02-19T02:18:53;2.17;;;1.67;;
10586;SDS011;5341;47.606;7.576;2023-02-19T02:21:45;1.83;;;1.60;;
10586;SDS011;5341;47.606;7.576;2023-02-19T02:24:27;1.75;;;1.65;;
10586;SDS011;5341;47.606;7.576;2023-02-19T02:30:15;2.00;;;1.75;;
10586;SDS011;5341;47.606;7.576;2023-02-19T02:32:57;1.95;;;1.75;;
10586;SDS011;5341;47.606;7.576;2023-02-19T02:35:43;1.80;;;1.70;;
10586;SDS011;5341;47.606;7.576;2023-02-19T02:38:15;1.90;;;1.70;;
10586;SDS011;5341;47.606;7.576;2023-02-19T02:40:46;1.90;;;1.60;;
10586;SDS011;5341;47.606;7.576;2023-02-19T02:43:14;2.00;;;1.70;;
10586;SDS011;5341;47.606;7.576;2023-02-19T02:45:43;1.90;;;1.70;;
10586;SDS011;5341;47.606;7.576;2023-02-19T02:48:21;2.35;;;1.85;;
10586;SDS011;5341;47.606;7.576;2023-02-19T02:50:57;2.60;;;1.70;;
10586;SDS011;5341;47.606;7.576;2023-02-19T02:53:35;1.77;;;1.67;;
10586;SDS011;5341;47.606;7.576;2023-02-19T02:56:24;2.20;;;2.00;;
10586;SDS011;5341;47.606;7.576;2023-02-19T02:58:52;3.13;;;1.58;;
10586;SDS011;5341;47.606;7.576;2023-02-19T03:01:26;1.80;;;1.70;;
10586;SDS011;5341;47.606;7.576;2023-02-19T03:04:14;2.03;;;1.80;;
10586;SDS011;5341;47.606;7.576;2023-02-19T03:06:48;2.08;;;1.88;;
10586;SDS011;5341;47.606;7.576;2023-02-19T03:09:18;2.05;;;1.85;;
10586;SDS011;5341;47.606;7.576;2023-02-19T03:11:55;2.67;;;1.92;;
10586;SDS011;5341;47.606;7.576;2023-02-19T03:14:44;1.98;;;1.77;;
10586;SDS011;5341;47.606;7.576;2023-02-19T03:17:33;2.85;;;2.22;;
10586;SDS011;5341;47.606;7.576;2023-02-19T03:20:22;2.10;;;1.90;;
10586;SDS011;5341;47.606;7.576;2023-02-19T03:22:51;2.08;;;1.88;;
10586;SDS011;5341;47.606;7.576;2023-02-19T03:25:21;2.10;;;1.88;;
10586;SDS011;5341;47.606;7.576;2023-02-19T03:28:13;2.40;;;2.20;;
10586;SDS011;5341;47.606;7.576;2023-02-19T03:30:46;3.15;;;2.00;;
10586;SDS011;5341;47.606;7.576;2023-02-19T03:33:19;2.00;;;1.80;;
10586;SDS011;5341;47.606;7.576;2023-02-19T03:35:52;2.42;;;2.22;;
10586;SDS011;5341;47.606;7.576;2023-02-19T03:38:24;2.13;;;1.90;;
10586;SDS011;5341;47.606;7.576;2023-02-19T03:40:57;1.95;;;1.85;;
10586;SDS011;5341;47.606;7.576;2023-02-19T03:43:34;2.13;;;1.90;;
10586;SDS011;5341;47.606;7.576;2023-02-19T03:46:06;2.90;;;2.00;;
10586;SDS011;5341;47.606;7.576;2023-02-19T03:48:41;2.65;;;2.17;;
10586;SDS011;5341;47.606;7.576;2023-02-19T03:51:19;2.20;;;2.00;;
10586;SDS011;5341;47.606;7.576;2023-02-19T03:53:57;2.10;;;1.75;;
10586;SDS011;5341;47.606;7.576;2023-02-19T03:56:37;1.95;;;1.80;;
10586;SDS011;5341;47.606;7.576;2023-02-19T03:59:08;1.90;;;1.73;;
10586;SDS011;5341;47.606;7.576;2023-02-19T04:01:40;1.95;;;1.67;;
10586;SDS011;5341;47.606;7.576;2023-02-19T04:04:15;2.55;;;2.00;;
10586;SDS011;5341;47.606;7.576;2023-02-19T04:06:47;2.00;;;1.80;;
10586;SDS011;5341;47.606;7.576;2023-02-19T04:09:18;2.10;;;1.90;;
10586;SDS011;5341;47.606;7.576;2023-02-19T04:11:53;2.20;;;2.00;;
10586;SDS011;5341;47.606;7.576;2023-02-19T04:14:22;2.03;;;1.80;;
10586;SDS011;5341;47.606;7.576;2023-02-19T04:16:56;2.03;;;1.77;;
10586;SDS011;5341;47.606;7.576;2023-02-19T04:19:29;1.85;;;1.75;;
10586;SDS011;5341;47.606;7.576;2023-02-19T04:22:00;2.83;;;1.70;;
10586;SDS011;5341;47.606;7.576;2023-02-19T04:24:33;2.08;;;1.88;;
10586;SDS011;5341;47.606;7.576;2023-02-19T04:27:04;3.17;;;1.70;;
10586;SDS011;5341;47.606;7.576;2023-02-19T04:29:32;2.30;;;1.98;;
10586;SDS011;5341;47.606;7.576;2023-02-19T04:32:00;2.42;;;2.00;;
10586;SDS011;5341;47.606;7.576;2023-02-19T04:34:27;2.13;;;1.92;;
10586;SDS011;5341;47.606;7.576;2023-02-19T04:36:56;2.03;;;1.83;;
10586;SDS011;5341;47.606;7.576;2023-02-19T04:39:23;3.10;;;2.13;;
10586;SDS011;5341;47.606;7.576;2023-02-19T04:41:51;1.83;;;1.70;;
10586;SDS011;5341;47.606;7.576;2023-02-19T04:44:19;2.17;;;1.98;;
10586;SDS011;5341;47.606;7.576;2023-02-19T04:46:46;2.17;;;1.95;;
10586;SDS011;5341;47.606;7.576;2023-02-19T04:49:14;2.42;;;1.80;;
10586;SDS011;5341;47.606;7.576;2023-02-19T04:51:41;2.03;;;1.80;;
10586;SDS011;5341;47.606;7.576;2023-02-19T04:54:10;2.03;;;1.83;;
10586;SDS011;5341;47.606;7.576;2023-02-19T04:56:38;2.47;;;2.03;;
10586;SDS011;5341;47.606;7.576;2023-02-19T04:59:06;2.15;;;1.90;;
10586;SDS011;5341;47.606;7.576;2023-02-19T05:01:33;1.80;;;1.60;;
10586;SDS011;5341;47.606;7.576;2023-02-19T05:04:00;1.77;;;1.67;;
10586;SDS011;5341;47.606;7.576;2023-02-19T05:06:29;1.95;;;1.80;;
10586;SDS011;5341;47.606;7.576;2023-02-19T05:08:56;2.05;;;1.85;;
10586;SDS011;5341;47.606;7.576;2023-02-19T05:11:25;1.92;;;1.73;;
10586;SDS011;5341;47.606;7.576;2023-02-19T05:13:53;2.40;;;1.95;;
10586;SDS011;5341;47.606;7.576;2023-02-19T05:16:21;2.30;;;2.10;;
10586;SDS011;5341;47.606;7.576;2023-02-19T05:18:48;2.25;;;2.05;;
10586;SDS011;5341;47.606;7.576;2023-02-19T05:21:16;4.40;;;2.38;;
10586;SDS011;5341;47.606;7.576;2023-02-19T05:23:43;3.03;;;2.22;;
10586;SDS011;5341;47.606;7.576;2023-02-19T05:26:11;2.28;;;2.00;;
10586;SDS011;5341;47.606;7.576;2023-02-19T05:28:43;2.58;;;2.38;;
10586;SDS011;5341;47.606;7.576;2023-02-19T05:31:12;2.80;;;2.40;;
10586;SDS011;5341;47.606;7.576;2023-02-19T05:33:39;4.43;;;2.42;;
10586;SDS011;5341;47.606;7.576;2023-02-19T05:36:08;2.55;;;2.33;;
10586;SDS011;5341;47.606;7.576;2023-02-19T05:38:37;2.50;;;2.13;;
10586;SDS011;5341;47.606;7.576;2023-02-19T05:41:06;2.78;;;2.20;;
10586;SDS011;5341;47.606;7.576;2023-02-19T05:43:35;2.45;;;2.13;;
10586;SDS011;5341;47.606;7.576;2023-02-19T05:46:04;2.30;;;2.10;;
10586;SDS011;5341;47.606;7.576;2023-02-19T05:48:34;2.53;;;2.33;;
10586;SDS011;5341;47.606;7.576;2023-02-19T05:51:02;2.85;;;2.20;;
10586;SDS011;5341;47.606;7.576;2023-02-19T05:53:31;3.22;;;2.17;;
10586;SDS011;5341;47.606;7.576;2023-02-19T05:55:59;2.13;;;1.92;;
10586;SDS011;5341;47.606;7.576;2023-02-19T05:58:28;2.83;;;2.00;;
10586;SDS011;5341;47.606;7.576;2023-02-19T06:00:56;2.10;;;1.90;;
10586;SDS011;5341;47.606;7.576;2023-02-19T06:03:31;2.22;;;1.98;;
10586;SDS011;5341;47.606;7.576;2023-02-19T06:06:04;3.15;;;2.50;;
10586;SDS011;5341;47.606;7.576;2023-02-19T06:08:37;2.15;;;1.95;;
10586;SDS011;5341;47.606;7.576;2023-02-19T06:11:05;2.35;;;2.15;;
10586;SDS011;5341;47.606;7.576;2023-02-19T06:13:34;2.42;;;2.03;;
10586;SDS011;5341;47.606;7.576;2023-02-19T06:16:02;2.42;;;2.22;;
10586;SDS011;5341;47.606;7.576;2023-02-19T06:18:33;3.80;;;2.70;;
10586;SDS011;5341;47.606;7.576;2023-02-19T06:21:01;2.97;;;2.67;;
10586;SDS011;5341;47.606;7.576;2023-02-19T06:23:29;3.22;;;2.92;;
10586;SDS011;5341;47.606;7.576;2023-02-19T06:26:03;4.70;;;2.85;;
10586;SDS011;5341;47.606;7.576;2023-02-19T06:28:32;2.88;;;2.58;;
10586;SDS011;5341;47.606;7.576;2023-02-19T06:31:00;4.78;;;2.90;;
10586;SDS011;5341;47.606;7.576;2023-02-19T06:33:30;4.00;;;2.80;;
10586;SDS011;5341;47.606;7.576;2023-02-19T06:35:59;2.83;;;2.53;;
10586;SDS011;5341;47.606;7.576;2023-02-19T06:38:28;4.35;;;2.92;;
10586;SDS011;5341;47.606;7.576;2023-02-19T06:40:58;2.95;;;2.60;;
10586;SDS011;5341;47.606;7.576;2023-02-19T06:43:27;3.22;;;2.63;;
10586;SDS011;5341;47.606;7.576;2023-02-19T06:45:56;4.15;;;3.13;;
10586;SDS011;5341;47.606;7.576;2023-02-19T06:48:24;4.50;;;2.72;;
10586;SDS011;5341;47.606;7.576;2023-02-19T06:50:53;3.22;;;2.70;;
10586;SDS011;5341;47.606;7.576;2023-02-19T06:53:22;2.55;;;2.35;;
10586;SDS011;5341;47.606;7.576;2023-02-19T06:55:56;3.00;;;2.70;;
10586;SDS011;5341;47.606;7.576;2023-02-19T06:58:24;2.70;;;2.50;;
10586;SDS011;5341;47.606;7.576;2023-02-19T07:00:53;3.63;;;2.45;;
10586;SDS011;5341;47.606;7.576;2023-02-19T07:03:23;2.80;;;2.50;;
10586;SDS011;5341;47.606;7.576;2023-02-19T07:05:51;2.72;;;2.53;;
10586;SDS011;5341;47.606;7.576;2023-02-19T07:08:20;2.70;;;2.35;;
10586;SDS011;5341;47.606;7.576;2023-02-19T07:10:52;2.72;;;2.45;;
10586;SDS011;5341;47.606;7.576;2023-02-19T07:13:21;3.03;;;2.72;;
10586;SDS011;5341;47.606;7.576;2023-02-19T07:15:49;2.60;;;2.40;;
10586;SDS011;5341;47.606;7.576;2023-02-19T07:18:16;2.50;;;2.25;;
10586;SDS011;5341;47.606;7.576;2023-02-19T07:20:44;2.35;;;2.15;;
10586;SDS011;5341;47.606;7.576;2023-02-19T07:23:12;3.03;;;2.53;;
10586;SDS011;5341;47.606;7.576;2023-02-19T07:25:41;2.75;;;2.30;;
10586;SDS011;5341;47.606;7.576;2023-02-19T07:28:09;2.38;;;2.17;;
10586;SDS011;5341;47.606;7.576;2023-02-19T07:30:38;2.72;;;2.17;;
10586;SDS011;5341;47.606;7.576;2023-02-19T07:33:06;2.28;;;2.05;;
10586;SDS011;5341;47.606;7.576;2023-02-19T07:35:34;2.47;;;2.20;;
10586;SDS011;5341;47.606;7.576;2023-02-19T07:38:01;2.88;;;1.90;;
10586;SDS011;5341;47.606;7.576;2023-02-19T07:40:30;2.05;;;1.85;;
10586;SDS011;5341;47.606;7.576;2023-02-19T07:43:00;2.00;;;1.80;;
10586;SDS011;5341;47.606;7.576;2023-02-19T07:45:27;2.00;;;1.90;;
10586;SDS011;5341;47.606;7.576;2023-02-19T07:47:55;2.63;;;2.10;;
10586;SDS011;5341;47.606;7.576;2023-02-19T07:50:22;2.35;;;2.15;;
10586;SDS011;5341;47.606;7.576;2023-02-19T07:52:50;2.33;;;2.13;;
10586;SDS011;5341;47.606;7.576;2023-02-19T07:55:18;1.90;;;1.80;;
10586;SDS011;5341;47.606;7.576;2023-02-19T07:57:47;2.20;;;2.00;;
10586;SDS011;5341;47.606;7.576;2023-02-19T08:00:17;2.33;;;2.13;;
10586;SDS011;5341;47.606;7.576;2023-02-19T08:02:46;3.50;;;2.00;;
10586;SDS011;5341;47.606;7.576;2023-02-19T08:05:27;2.28;;;1.80;;
10586;SDS011;5341;47.606;7.576;2023-02-19T08:07:57;2.10;;;1.90;;
10586;SDS011;5341;47.606;7.576;2023-02-19T08:10:26;2.35;;;2.00;;
10586;SDS011;5341;47.606;7.576;2023-02-19T08:13:12;2.25;;;2.05;;
10586;SDS011;5341;47.606;7.576;2023-02-19T08:15:51;2.80;;;1.77;;
10586;SDS011;5341;47.606;7.576;2023-02-19T08:18:23;2.22;;;1.92;;
10586;SDS011;5341;47.606;7.576;2023-02-19T08:20:53;1.90;;;1.70;;
10586;SDS011;5341;47.606;7.576;2023-02-19T08:23:21;2.30;;;2.10;;
10586;SDS011;5341;47.606;7.576;2023-02-19T08:25:49;2.25;;;2.05;;
10586;SDS011;5341;47.606;7.576;2023-02-19T08:28:18;2.40;;;1.80;;
10586;SDS011;5341;47.606;7.576;2023-02-19T08:30:47;2.22;;;2.05;;
10586;SDS011;5341;47.606;7.576;2023-02-19T08:33:17;3.28;;;1.77;;
10586;SDS011;5341;47.606;7.576;2023-02-19T08:35:46;1.92;;;1.80;;
10586;SDS011;5341;47.606;7.576;2023-02-19T08:38:14;2.42;;;1.85;;
10586;SDS011;5341;47.606;7.576;2023-02-19T08:40:42;1.88;;;1.75;;
10586;SDS011;5341;47.606;7.576;2023-02-19T08:43:14;2.00;;;1.80;;
10586;SDS011;5341;47.606;7.576;2023-02-19T08:45:43;2.10;;;1.90;;
10586;SDS011;5341;47.606;7.576;2023-02-19T08:48:12;2.15;;;1.95;;
10586;SDS011;5341;47.606;7.576;2023-02-19T08:50:41;2.20;;;2.00;;
10586;SDS011;5341;47.606;7.576;2023-02-19T08:53:08;2.22;;;1.80;;
10586;SDS011;5341;47.606;7.576;2023-02-19T08:55:36;2.80;;;2.17;;
10586;SDS011;5341;47.606;7.576;2023-02-19T08:58:04;2.90;;;2.60;;
10586;SDS011;5341;47.606;7.576;2023-02-19T09:00:32;2.00;;;1.80;;
10586;SDS011;5341;47.606;7.576;2023-02-19T09:02:59;2.83;;;2.10;;
10586;SDS011;5341;47.606;7.576;2023-02-19T09:05:27;2.63;;;2.22;;
10586;SDS011;5341;47.606;7.576;2023-02-19T09:07:55;2.00;;;1.80;;
10586;SDS011;5341;47.606;7.576;2023-02-19T09:10:23;2.28;;;1.85;;
10586;SDS011;5341;47.606;7.576;2023-02-19T09:12:52;1.80;;;1.70;;
10586;SDS011;5341;47.606;7.576;2023-02-19T09:15:25;2.00;;;1.80;;
10586;SDS011;5341;47.606;7.576;2023-02-19T09:17:55;1.67;;;1.55;;
10586;SDS011;5341;47.606;7.576;2023-02-19T09:20:23;1.70;;;1.60;;
10586;SDS011;5341;47.606;7.576;2023-02-19T09:22:56;1.70;;;1.58;;
10586;SDS011;5341;47.606;7.576;2023-02-19T09:25:25;1.70;;;1.50;;
10586;SDS011;5341;47.606;7.576;2023-02-19T09:27:54;2.30;;;1.60;;
10586;SDS011;5341;47.606;7.576;2023-02-19T09:30:22;1.63;;;1.52;;
10586;SDS011;5341;47.606;7.576;2023-02-19T09:32:50;1.60;;;1.38;;
10586;SDS011;5341;47.606;7.576;2023-02-19T09:35:17;1.40;;;1.30;;
10586;SDS011;5341;47.606;7.576;2023-02-19T09:37:44;2.05;;;1.48;;
10586;SDS011;5341;47.606;7.576;2023-02-19T09:40:14;1.30;;;1.20;;
10586;SDS011;5341;47.606;7.576;2023-02-19T09:42:46;1.45;;;1.35;;
10586;SDS011;5341;47.606;7.576;2023-02-19T09:45:18;1.40;;;1.30;;
10586;SDS011;5341;47.606;7.576;2023-02-19T09:47:49;1.45;;;1.35;;
10586;SDS011;5341;47.606;7.576;2023-02-19T09:50:21;1.40;;;1.30;;
10586;SDS011;5341;47.606;7.576;2023-02-19T09:52:53;1.60;;;1.30;;
10586;SDS011;5341;47.606;7.576;2023-02-19T09:55:28;1.60;;;1.30;;
10586;SDS011;5341;47.606;7.576;2023-02-19T09:57:59;1.80;;;1.40;;
10586;SDS011;5341;47.606;7.576;2023-02-19T10:00:32;1.48;;;1.38;;
10586;SDS011;5341;47.606;7.576;2023-02-19T10:03:02;1.38;;;1.27;;
10586;SDS011;5341;47.606;7.576;2023-02-19T10:05:35;3.03;;;1.38;;
10586;SDS011;5341;47.606;7.576;2023-02-19T10:08:06;1.70;;;1.40;;
10586;SDS011;5341;47.606;7.576;2023-02-19T10:10:40;1.75;;;1.33;;
10586;SDS011;5341;47.606;7.576;2023-02-19T10:13:12;1.95;;;1.65;;
10586;SDS011;5341;47.606;7.576;2023-02-19T10:15:45;1.50;;;1.40;;
10586;SDS011;5341;47.606;7.576;2023-02-19T10:18:16;1.50;;;1.40;;
10586;SDS011;5341;47.606;7.576;2023-02-19T10:20:46;1.42;;;1.33;;
10586;SDS011;5341;47.606;7.576;2023-02-19T10:23:14;1.70;;;1.60;;
10586;SDS011;5341;47.606;7.576;2023-02-19T10:25:46;2.78;;;1.60;;
10586;SDS011;5341;47.606;7.576;2023-02-19T10:28:16;2.47;;;2.17;;
10586;SDS011;5341;47.606;7.576;2023-02-19T10:30:47;2.00;;;1.80;;
10586;SDS011;5341;47.606;7.576;2023-02-19T10:33:19;2.03;;;1.70;;
10586;SDS011;5341;47.606;7.576;2023-02-19T10:35:51;2.72;;;1.80;;
10586;SDS011;5341;47.606;7.576;2023-02-19T10:38:20;2.58;;;1.90;;
10586;SDS011;5341;47.606;7.576;2023-02-19T10:40:55;1.98;;;1.70;;
10586;SDS011;5341;47.606;7.576;2023-02-19T10:43:26;2.55;;;1.73;;
10586;SDS011;5341;47.606;7.576;2023-02-19T10:46:15;2.63;;;2.15;;
10586;SDS011;5341;47.606;7.576;2023-02-19T10:48:48;2.30;;;2.10;;
10586;SDS011;5341;47.606;7.576;2023-02-19T10:51:20;2.28;;;2.05;;
10586;SDS011;5341;47.606;7.576;2023-02-19T10:54:05;2.72;;;2.45;;
10586;SDS011;5341;47.606;7.576;2023-02-19T10:56:41;2.58;;;2.28;;
10586;SDS011;5341;47.606;7.576;2023-02-19T10:59:21;7.00;;;5.10;;
10586;SDS011;5341;47.606;7.576;2023-02-19T11:01:53;4.85;;;3.60;;
10586;SDS011;5341;47.606;7.576;2023-02-19T11:04:23;3.30;;;2.80;;
10586;SDS011;5341;47.606;7.576;2023-02-19T11:06:52;5.28;;;3.53;;
10586;SDS011;5341;47.606;7.576;2023-02-19T11:09:23;4.25;;;3.42;;
10586;SDS011;5341;47.606;7.576;2023-02-19T11:11:55;3.53;;;2.90;;
10586;SDS011;5341;47.606;7.576;2023-02-19T11:14:24;6.30;;;4.18;;
10586;SDS011;5341;47.606;7.576;2023-02-19T11:16:55;3.00;;;2.35;;
10586;SDS011;5341;47.606;7.576;2023-02-19T11:19:25;2.72;;;1.88;;
10586;SDS011;5341;47.606;7.576;2023-02-19T11:21:54;2.17;;;1.98;;
10586;SDS011;5341;47.606;7.576;2023-02-19T11:24:24;2.75;;;1.80;;
10586;SDS011;5341;47.606;7.576;2023-02-19T11:26:59;2.13;;;1.92;;
10586;SDS011;5341;47.606;7.576;2023-02-19T11:29:29;3.38;;;1.60;;
10586;SDS011;5341;47.606;7.576;2023-02-19T11:34:49;2.25;;;1.58;;
10586;SDS011;5341;47.606;7.576;2023-02-19T11:37:17;1.98;;;1.80;;
10586;SDS011;5341;47.606;7.576;2023-02-19T11:39:46;1.88;;;1.65;;
10586;SDS011;5341;47.606;7.576;2023-02-19T11:45:11;3.53;;;1.98;;
10586;SDS011;5341;47.606;7.576;2023-02-19T11:51:00;2.22;;;1.85;;
10586;SDS011;5341;47.606;7.576;2023-02-19T11:53:43;2.97;;;2.00;;
10586;SDS011;5341;47.606;7.576;2023-02-19T11:56:14;2.97;;;2.38;;
10586;SDS011;5341;47.606;7.576;2023-02-19T11:58:49;2.70;;;2.00;;
10586;SDS011;5341;47.606;7.576;2023-02-19T12:01:22;2.55;;;2.05;;
10586;SDS011;5341;47.606;7.576;2023-02-19T12:07:09;5.28;;;4.18;;
10586;SDS011;5341;47.606;7.576;2023-02-19T12:09:48;4.90;;;3.97;;
10586;SDS011;5341;47.606;7.576;2023-02-19T12:12:30;6.13;;;4.07;;
10586;SDS011;5341;47.606;7.576;2023-02-19T12:15:23;3.22;;;2.40;;
10586;SDS011;5341;47.606;7.576;2023-02-19T12:18:05;3.40;;;2.95;;
10586;SDS011;5341;47.606;7.576;2023-02-19T12:20:46;9.60;;;8.50;;
10586;SDS011;5341;47.606;7.576;2023-02-19T12:23:31;9.43;;;7.80;;
10586;SDS011;5341;47.606;7.576;2023-02-19T12:26:18;4.75;;;3.75;;
10586;SDS011;5341;47.606;7.576;2023-02-19T12:28:54;6.13;;;5.40;;
10586;SDS011;5341;47.606;7.576;2023-02-19T12:31:53;4.90;;;3.95;;
10586;SDS011;5341;47.606;7.576;2023-02-19T12:34:51;3.33;;;2.80;;
10586;SDS011;5341;47.606;7.576;2023-02-19T12:37:49;4.60;;;4.13;;
10586;SDS011;5341;47.606;7.576;2023-02-19T12:40:37;6.30;;;4.30;;
10586;SDS011;5341;47.606;7.576;2023-02-19T12:43:16;6.53;;;4.93;;
10586;SDS011;5341;47.606;7.576;2023-02-19T12:45:46;5.82;;;4.03;;
10586;SDS011;5341;47.606;7.576;2023-02-19T12:48:22;8.27;;;5.22;;
10586;SDS011;5341;47.606;7.576;2023-02-19T12:50:57;7.53;;;4.80;;
10586;SDS011;5341;47.606;7.576;2023-02-19T12:53:43;6.38;;;4.60;;
10586;SDS011;5341;47.606;7.576;2023-02-19T12:56:16;3.22;;;2.45;;
10586;SDS011;5341;47.606;7.576;2023-02-19T12:58:48;4.57;;;2.90;;
10586;SDS011;5341;47.606;7.576;2023-02-19T13:01:21;5.25;;;3.08;;
10586;SDS011;5341;47.606;7.576;2023-02-19T13:03:57;5.05;;;3.80;;
10586;SDS011;5341;47.606;7.576;2023-02-19T13:06:46;5.55;;;3.00;;
10586;SDS011;5341;47.606;7.576;2023-02-19T13:09:19;3.13;;;2.83;;
10586;SDS011;5341;47.606;7.576;2023-02-19T13:11:54;3.83;;;3.15;;
10586;SDS011;5341;47.606;7.576;2023-02-19T13:14:26;3.22;;;2.00;;
10586;SDS011;5341;47.606;7.576;2023-02-19T13:16:59;3.30;;;2.40;;
10586;SDS011;5341;47.606;7.576;2023-02-19T13:19:35;3.50;;;2.05;;
10586;SDS011;5341;47.606;7.576;2023-02-19T13:22:06;3.08;;;1.70;;
10586;SDS011;5341;47.606;7.576;2023-02-19T13:25:02;2.05;;;1.80;;
10586;SDS011;5341;47.606;7.576;2023-02-19T13:27:41;3.83;;;2.20;;
10586;SDS011;5341;47.606;7.576;2023-02-19T13:30:32;4.03;;;2.35;;
10586;SDS011;5341;47.606;7.576;2023-02-19T13:33:19;3.10;;;1.98;;
10586;SDS011;5341;47.606;7.576;2023-02-19T13:36:02;3.45;;;1.88;;
10586;SDS011;5341;47.606;7.576;2023-02-19T13:38:42;3.33;;;2.30;;
10586;SDS011;5341;47.606;7.576;2023-02-19T13:41:18;3.00;;;2.10;;
10586;SDS011;5341;47.606;7.576;2023-02-19T13:43:53;5.20;;;2.80;;
10586;SDS011;5341;47.606;7.576;2023-02-19T13:46:22;3.25;;;1.90;;
10586;SDS011;5341;47.606;7.576;2023-02-19T13:51:53;2.97;;;2.10;;
10586;SDS011;5341;47.606;7.576;2023-02-19T13:54:25;2.58;;;1.85;;
10586;SDS011;5341;47.606;7.576;2023-02-19T13:59:53;3.15;;;1.92;;
10586;SDS011;5341;47.606;7.576;2023-02-19T14:05:07;2.15;;;1.95;;
10586;SDS011;5341;47.606;7.576;2023-02-19T14:07:46;4.15;;;2.25;;
10586;SDS011;5341;47.606;7.576;2023-02-19T14:16:54;2.88;;;2.20;;
10586;SDS011;5341;47.606;7.576;2023-02-19T14:19:53;3.15;;;2.30;;
10586;SDS011;5341;47.606;7.576;2023-02-19T14:25:37;3.50;;;2.20;;
10586;SDS011;5341;47.606;7.576;2023-02-19T14:28:20;3.00;;;2.00;;
10586;SDS011;5341;47.606;7.576;2023-02-19T14:30:54;2.75;;;2.05;;
10586;SDS011;5341;47.606;7.576;2023-02-19T14:33:24;2.65;;;1.90;;
10586;SDS011;5341;47.606;7.576;2023-02-19T14:35:54;6.70;;;2.38;;
10586;SDS011;5341;47.606;7.576;2023-02-19T14:38:27;3.42;;;1.90;;
10586;SDS011;5341;47.606;7.576;2023-02-19T14:40:58;4.80;;;2.13;;
10586;SDS011;5341;47.606;7.576;2023-02-19T14:43:27;3.67;;;2.17;;
10586;SDS011;5341;47.606;7.576;2023-02-19T14:45:55;4.28;;;1.92;;
10586;SDS011;5341;47.606;7.576;2023-02-19T14:48:27;5.25;;;2.20;;
10586;SDS011;5341;47.606;7.576;2023-02-19T14:50:59;3.35;;;2.05;;
10586;SDS011;5341;47.606;7.576;2023-02-19T14:53:33;3.15;;;2.03;;
10586;SDS011;5341;47.606;7.576;2023-02-19T14:56:05;3.85;;;2.22;;
10586;SDS011;5341;47.606;7.576;2023-02-19T14:58:43;4.13;;;2.28;;
10586;SDS011;5341;47.606;7.576;2023-02-19T15:01:23;3.70;;;2.10;;
10586;SDS011;5341;47.606;7.576;2023-02-19T15:03:52;3.58;;;2.20;;
10586;SDS011;5341;47.606;7.576;2023-02-19T15:06:20;4.10;;;2.20;;
10586;SDS011;5341;47.606;7.576;2023-02-19T15:08:51;3.45;;;2.28;;
10586;SDS011;5341;47.606;7.576;2023-02-19T15:11:23;4.47;;;2.22;;
10586;SDS011;5341;47.606;7.576;2023-02-19T15:13:54;3.70;;;2.13;;
10586;SDS011;5341;47.606;7.576;2023-02-19T15:16:26;3.50;;;2.60;;
10586;SDS011;5341;47.606;7.576;2023-02-19T15:18:57;4.45;;;2.53;;
10586;SDS011;5341;47.606;7.576;2023-02-19T15:21:27;4.35;;;2.38;;
10586;SDS011;5341;47.606;7.576;2023-02-19T15:23:59;3.63;;;2.50;;
10586;SDS011;5341;47.606;7.576;2023-02-19T15:26:30;3.72;;;2.35;;
10586;SDS011;5341;47.606;7.576;2023-02-19T15:29:01;7.82;;;5.07;;
10586;SDS011;5341;47.606;7.576;2023-02-19T15:31:30;5.43;;;3.72;;
10586;SDS011;5341;47.606;7.576;2023-02-19T15:33:57;4.82;;;3.00;;
10586;SDS011;5341;47.606;7.576;2023-02-19T15:36:25;4.72;;;3.30;;
10586;SDS011;5341;47.606;7.576;2023-02-19T15:38:56;3.95;;;3.17;;
10586;SDS011;5341;47.606;7.576;2023-02-19T15:41:27;7.88;;;3.85;;
10586;SDS011;5341;47.606;7.576;2023-02-19T15:44:14;3.65;;;3.00;;
10586;SDS011;5341;47.606;7.576;2023-02-19T15:46:52;4.10;;;3.03;;
10586;SDS011;5341;47.606;7.576;2023-02-19T15:49:21;5.35;;;3.38;;
10586;SDS011;5341;47.606;7.576;2023-02-19T15:51:56;24.58;;;15.60;;
10586;SDS011;5341;47.606;7.576;2023-02-19T15:54:29;10.98;;;8.45;;
10586;SDS011;5341;47.606;7.576;2023-02-19T15:57:04;13.73;;;9.48;;
10586;SDS011;5341;47.606;7.576;2023-02-19T15:59:36;12.93;;;8.45;;
10586;SDS011;5341;47.606;7.576;2023-02-19T16:02:08;11.70;;;8.20;;
10586;SDS011;5341;47.606;7.576;2023-02-19T16:04:39;12.63;;;7.88;;